Time;durP1;ratioP1;P1;durP2;ratioP2;P2;SDS_P1;SDS_P2;PMS_P1;PMS_P2;Temp;Humidity;BMP_temperature;BMP_pressure;BME280_temperature;BME280_humidity;BME280_pressure;Samples;Min_cycle;Max_cycle;Signal;HPM_P1;HPM_P2
2022/09/29 00:00:40;;;;;;;11.73;9.20;;;;;;;16.12;100.00;99288.70;1702778;81;21082;-59
2022/09/29 00:03:07;;;;;;;12.03;9.57;;;;;;;16.04;100.00;99287.81;1714902;82;20968;-61
2022/09/29 00:05:34;;;;;;;11.20;9.00;;;;;;;16.00;100.00;99297.22;1718988;82;21617;-60
2022/09/29 00:08:02;;;;;;;13.13;10.20;;;;;;;15.94;100.00;99289.77;1707532;81;21062;-59
2022/09/29 00:10:30;;;;;;;13.60;10.27;;;;;;;15.89;100.00;99286.29;1706183;83;21138;-63
2022/09/29 00:12:58;;;;;;;15.63;10.47;;;;;;;15.84;100.00;99284.91;1705532;83;22365;-59
2022/09/29 00:15:25;;;;;;;13.80;8.83;;;;;;;15.76;100.00;99286.91;1708548;81;20959;-60
2022/09/29 00:17:53;;;;;;;11.30;8.40;;;;;;;15.72;100.00;99294.99;1709414;81;21196;-59
2022/09/29 00:20:20;;;;;;;12.73;8.93;;;;;;;15.65;100.00;99294.36;1705031;83;21046;-60
2022/09/29 00:22:51;;;;;;;9.57;8.47;;;;;;;15.56;100.00;99306.25;1678893;85;21913;-60
2022/09/29 00:25:18;;;;;;;10.87;9.17;;;;;;;15.51;100.00;99311.44;1675960;83;22429;-59
2022/09/29 00:27:45;;;;;;;14.80;9.10;;;;;;;15.42;100.00;99313.66;1700354;82;20996;-59
2022/09/29 00:30:14;;;;;;;11.03;9.40;;;;;;;15.40;100.00;99307.05;1713561;83;21470;-59
2022/09/29 00:32:41;;;;;;;11.00;9.87;;;;;;;15.36;100.00;99308.03;1684495;85;20940;-67
2022/09/29 00:35:09;;;;;;;11.73;9.73;;;;;;;15.36;100.00;99308.03;1685160;85;21182;-60
2022/09/29 00:37:37;;;;;;;12.97;9.43;;;;;;;15.36;100.00;99313.81;1711106;83;21486;-59
2022/09/29 00:40:06;;;;;;;13.63;10.27;;;;;;;15.35;100.00;99310.39;1713844;83;21047;-59
2022/09/29 00:42:33;;;;;;;11.87;9.73;;;;;;;15.31;100.00;99310.06;1713978;83;20996;-59
2022/09/29 00:45:20;;;;;;;11.13;9.77;;;;;;;15.20;100.00;99318.80;1733790;82;21030;-60
2022/09/29 00:48:02;;;;;;;10.43;8.00;;;;;;;15.09;100.00;99327.52;1705922;83;20936;-59
2022/09/29 00:50:39;;;;;;;14.00;9.63;;;;;;;15.02;100.00;99330.28;1705638;83;21031;-59
2022/09/29 00:53:10;;;;;;;12.30;8.80;;;;;;;14.98;100.00;99323.91;1706061;84;21719;-58
2022/09/29 00:55:40;;;;;;;9.47;8.47;;;;;;;14.88;100.00;99327.65;1693022;83;21095;-59
2022/09/29 00:58:21;;;;;;;11.97;8.80;;;;;;;14.88;100.00;99330.79;1695637;83;20990;-59
2022/09/29 01:00:49;;;;;;;14.07;9.60;;;;;;;14.77;100.00;99331.10;1694192;84;22181;-60
2022/09/29 01:03:19;;;;;;;11.20;8.40;;;;;;;14.69;100.00;99334.89;1679156;85;21654;-58
2022/09/29 01:05:50;;;;;;;13.20;9.47;;;;;;;14.62;100.00;99335.53;1674044;83;22108;-58
2022/09/29 01:08:30;;;;;;;12.30;9.63;;;;;;;14.67;100.00;99334.34;1667799;85;21093;-65
2022/09/29 01:10:57;;;;;;;10.93;8.27;;;;;;;14.66;100.00;99338.00;1671186;85;21119;-60
2022/09/29 01:13:25;;;;;;;10.30;8.47;;;;;;;14.62;100.00;99340.77;1698159;84;21892;-59
2022/09/29 01:15:53;;;;;;;10.17;8.60;;;;;;;14.52;100.00;99348.45;1679833;83;21057;-61
2022/09/29 01:18:20;;;;;;;12.07;9.30;;;;;;;14.44;100.00;99349.58;1673254;84;20972;-63
2022/09/29 01:21:11;;;;;;;12.57;10.47;;;;;;;14.48;100.00;99353.84;1674045;85;21088;-61
2022/09/29 01:24:18;;;;;;;10.93;9.70;;;;;;;14.48;100.00;99353.84;1670274;84;21170;-61
2022/09/29 01:27:06;;;;;;;13.80;10.37;;;;;;;14.59;100.00;99355.69;1699194;82;21247;-59
2022/09/29 01:30:09;;;;;;;11.17;9.80;;;;;;;14.62;100.00;99358.34;1698448;82;21016;-59
2022/09/29 01:33:12;;;;;;;9.63;8.13;;;;;;;14.74;100.00;99361.24;1686460;84;20962;-69
2022/09/29 01:36:11;;;;;;;10.13;9.00;;;;;;;14.73;100.00;99368.80;1602374;88;21743;-61
2022/09/29 01:39:00;;;;;;;12.20;10.20;;;;;;;14.83;100.00;99375.58;1691426;83;21071;-59
2022/09/29 01:41:52;;;;;;;11.87;9.67;;;;;;;14.75;100.00;99386.44;1710557;82;22724;-63
2022/09/29 01:44:37;;;;;;;11.57;10.10;;;;;;;14.83;100.00;99384.77;1700819;83;20935;-59
2022/09/29 01:47:12;;;;;;;10.73;9.23;;;;;;;14.98;100.00;99392.66;1669556;85;20922;-60
2022/09/29 01:49:46;;;;;;;11.67;9.63;;;;;;;15.01;100.00;99394.31;1670707;85;21019;-59
2022/09/29 01:52:17;;;;;;;14.77;9.67;;;;;;;15.13;100.00;99394.27;1645458;85;21045;-60
2022/09/29 01:55:05;;;;;;;12.17;10.33;;;;;;;15.22;100.00;99400.73;1670541;85;21274;-69
2022/09/29 01:57:51;;;;;;;11.67;9.83;;;;;;;15.20;100.00;99408.06;1674003;83;21007;-59
2022/09/29 02:00:19;;;;;;;12.43;11.10;;;;;;;15.36;100.00;99406.51;1713001;83;21052;-68
2022/09/29 02:03:18;;;;;;;15.77;11.43;;;;;;;15.38;100.00;99416.77;1713647;83;20989;-59
2022/09/29 02:05:56;;;;;;;15.13;11.30;;;;;;;15.52;100.00;99411.52;1709406;83;20976;-61
2022/09/29 02:08:34;;;;;;;11.73;10.37;;;;;;;15.57;100.00;99419.50;1712298;83;21241;-60
2022/09/29 02:11:06;;;;;;;11.80;10.07;;;;;;;15.55;100.00;99426.29;1713244;83;21454;-59
2022/09/29 02:13:56;;;;;;;13.13;9.80;;;;;;;15.62;100.00;99418.27;1713299;83;21439;-59
2022/09/29 02:16:26;;;;;;;12.53;10.17;;;;;;;15.73;100.00;99429.27;1713489;83;21004;-59
2022/09/29 02:19:12;;;;;;;;;;;;;;;15.76;100.00;99428.80;1690027;83;21489;-59
2022/09/29 02:21:39;;;;;;;13.90;10.23;;;;;;;15.88;100.00;99425.31;1711796;83;21926;-59
2022/09/29 02:24:07;;;;;;;13.57;10.20;;;;;;;16.03;100.00;99428.97;1713314;83;20924;-59
2022/09/29 02:26:34;;;;;;;10.93;9.73;;;;;;;16.15;100.00;99436.78;1713407;83;21051;-59
2022/09/29 02:29:02;;;;;;;12.73;10.00;;;;;;;16.16;100.00;99442.31;1713250;83;20980;-66
2022/09/29 02:31:30;;;;;;;12.23;9.37;;;;;;;16.24;100.00;99438.48;1713156;83;21002;-61
2022/09/29 02:33:59;;;;;;;13.00;9.87;;;;;;;16.28;100.00;99443.54;1709449;83;21162;-59
2022/09/29 02:36:54;;;;;;;11.03;8.77;;;;;;;16.23;100.00;99448.73;1656232;86;20954;-59
2022/09/29 02:39:35;;;;;;;11.03;9.43;;;;;;;16.21;100.00;99446.84;1656303;86;21109;-60
2022/09/29 02:42:24;;;;;;;;;;;;;;;16.33;100.00;99448.89;1646838;87;20999;-60
2022/09/29 02:45:29;;;;;;;10.70;9.60;;;;;;;16.42;100.00;99458.48;1684701;84;20280;-60
2022/09/29 02:48:32;;;;;;;10.77;8.80;;;;;;;16.44;100.00;99470.37;1655710;86;21243;-63
2022/09/29 02:51:25;;;;;;;10.97;9.10;;;;;;;16.43;100.00;99482.42;1656202;86;20998;-60
2022/09/29 02:54:21;;;;;;;10.90;8.23;;;;;;;16.49;100.00;99474.90;1641910;87;21079;-59
2022/09/29 02:57:16;;;;;;;13.77;9.10;;;;;;;16.43;100.00;99474.53;1683540;85;20952;-61
2022/09/29 03:00:08;;;;;;;11.63;8.60;;;;;;;16.45;100.00;99480.37;1684621;85;21058;-61
2022/09/29 03:02:38;;;;;;;9.77;8.37;;;;;;;16.38;100.00;99481.05;1664864;85;21413;-59
2022/09/29 03:05:08;;;;;;;9.57;8.23;;;;;;;16.24;100.00;99481.34;1656254;86;20964;-59
2022/09/29 03:07:37;;;;;;;10.47;9.03;;;;;;;16.26;100.00;99477.98;1644373;87;20973;-59
2022/09/29 03:10:06;;;;;;;11.40;9.07;;;;;;;16.32;100.00;99478.05;1683963;85;20952;-59
2022/09/29 03:12:35;;;;;;;10.67;9.17;;;;;;;16.26;100.00;99483.76;1656218;86;21129;-59
2022/09/29 03:15:04;;;;;;;11.53;9.27;;;;;;;16.25;100.00;99487.41;1656371;86;22162;-59
2022/09/29 03:17:31;;;;;;;10.13;9.07;;;;;;;16.28;100.00;99482.98;1644284;87;20945;-59
2022/09/29 03:19:59;;;;;;;9.50;8.50;;;;;;;16.21;100.00;99491.05;1684499;85;20944;-68
2022/09/29 03:22:26;;;;;;;11.17;9.70;;;;;;;16.16;100.00;99490.95;1655989;85;21001;-59
2022/09/29 03:24:53;;;;;;;11.90;9.30;;;;;;;16.15;100.00;99489.37;1644225;87;21044;-58
2022/09/29 03:27:20;;;;;;;10.43;9.27;;;;;;;16.21;100.00;99498.94;1684634;85;21298;-59
2022/09/29 03:29:49;;;;;;;11.90;9.63;;;;;;;16.36;100.00;99496.25;1655987;86;21024;-65
2022/09/29 03:32:17;;;;;;;11.70;9.70;;;;;;;16.36;100.00;99500.20;1644229;87;21091;-58
2022/09/29 03:34:44;;;;;;;10.07;9.07;;;;;;;16.28;100.00;99507.45;1684665;85;20996;-59
2022/09/29 03:37:11;;;;;;;9.87;8.87;;;;;;;16.30;100.00;99517.75;1656263;86;21036;-59
2022/09/29 03:39:40;;;;;;;9.13;8.20;;;;;;;16.43;100.00;99528.46;1656127;86;21239;-58
2022/09/29 03:42:07;;;;;;;13.57;8.83;;;;;;;16.28;100.00;99530.33;1643742;87;20909;-58
2022/09/29 03:44:34;;;;;;;11.40;8.60;;;;;;;16.34;100.00;99542.53;1705365;82;20988;-58
2022/09/29 03:47:01;;;;;;;11.13;8.80;;;;;;;16.39;100.00;99541.81;1713255;83;21012;-59
2022/09/29 03:49:29;;;;;;;11.03;8.40;;;;;;;16.37;100.00;99542.58;1713256;83;21104;-59
2022/09/29 03:51:56;;;;;;;10.93;9.37;;;;;;;16.58;100.00;99546.32;1712897;83;21326;-68
2022/09/29 03:54:26;;;;;;;13.60;9.93;;;;;;;16.61;100.00;99545.33;1712924;83;20924;-59
2022/09/29 03:56:53;;;;;;;10.40;9.17;;;;;;;16.46;100.00;99541.94;1713219;83;21466;-59
2022/09/29 03:59:20;;;;;;;11.77;9.30;;;;;;;16.43;100.00;99544.24;1713248;83;21177;-59
2022/09/29 04:01:48;;;;;;;11.17;8.63;;;;;;;16.44;100.00;99553.72;1717818;82;20988;-59
2022/09/29 04:04:16;;;;;;;12.07;9.10;;;;;;;16.48;100.00;99549.61;1740513;82;22163;-59
2022/09/29 04:06:43;;;;;;;9.90;8.40;;;;;;;16.51;100.00;99550.42;1721304;83;21628;-59
2022/09/29 04:09:12;;;;;;;12.27;9.53;;;;;;;16.45;100.00;99557.45;1718012;82;21027;-59
2022/09/29 04:11:39;;;;;;;10.43;8.60;;;;;;;16.51;100.00;99559.63;1698651;84;20963;-58
2022/09/29 04:14:06;;;;;;;12.57;8.90;;;;;;;16.41;100.00;99560.80;1716846;83;21011;-58
2022/09/29 04:16:34;;;;;;;10.27;9.17;;;;;;;16.38;100.00;99559.43;1665351;86;21282;-69
2022/09/29 04:19:03;;;;;;;9.50;8.50;;;;;;;16.46;100.00;99566.13;1671089;85;21134;-60
2022/09/29 04:21:30;;;;;;;11.70;8.80;;;;;;;16.48;100.00;99567.50;1699107;84;20951;-59
2022/09/29 04:23:57;;;;;;;10.03;8.90;;;;;;;16.48;100.00;99560.13;1716507;83;20995;-59
2022/09/29 04:26:25;;;;;;;10.53;8.20;;;;;;;16.63;100.00;99563.00;1665832;86;21011;-59
2022/09/29 04:28:52;;;;;;;10.23;8.70;;;;;;;16.71;100.00;99565.23;1670510;85;21105;-59
2022/09/29 04:31:19;;;;;;;9.80;7.80;;;;;;;16.84;100.00;99568.59;1699308;84;20990;-59
2022/09/29 04:33:47;;;;;;;12.20;8.30;;;;;;;16.91;100.00;99572.66;1716613;83;21022;-60
2022/09/29 04:36:16;;;;;;;10.20;8.07;;;;;;;16.98;100.00;99575.92;1671080;85;21628;-58
2022/09/29 04:38:43;;;;;;;10.97;8.47;;;;;;;17.15;100.00;99573.25;1698684;84;20998;-59
2022/09/29 04:41:11;;;;;;;9.80;8.47;;;;;;;17.25;100.00;99577.34;1716702;83;22216;-59
2022/09/29 04:43:38;;;;;;;10.53;8.60;;;;;;;17.26;100.00;99580.25;1665574;85;20910;-59
2022/09/29 04:46:06;;;;;;;10.53;9.23;;;;;;;17.40;100.00;99580.70;1671169;85;21062;-59
2022/09/29 04:48:34;;;;;;;11.60;8.17;;;;;;;17.53;100.00;99586.12;1693834;84;21007;-70
2022/09/29 04:51:01;;;;;;;12.13;8.90;;;;;;;17.48;100.00;99586.06;1665702;86;21069;-59
2022/09/29 04:53:29;;;;;;;11.97;8.90;;;;;;;17.59;100.00;99589.63;1665826;85;22118;-59
2022/09/29 04:55:56;;;;;;;9.50;8.50;;;;;;;17.62;100.00;99589.94;1665716;86;20990;-59
2022/09/29 04:58:23;;;;;;;10.17;8.00;;;;;;;17.67;100.00;99591.83;1665733;86;20987;-59
2022/09/29 05:00:50;;;;;;;10.73;8.70;;;;;;;17.70;100.00;99595.30;1665373;86;21314;-61
2022/09/29 05:03:17;;;;;;;9.13;8.23;;;;;;;17.72;100.00;99592.67;1665556;85;21070;-60
2022/09/29 05:05:44;;;;;;;10.53;8.67;;;;;;;17.84;100.00;99599.19;1659439;86;21208;-60
2022/09/29 05:08:13;;;;;;;12.73;8.90;;;;;;;17.92;100.00;99593.48;1650696;86;21020;-59
2022/09/29 05:10:40;;;;;;;11.00;8.47;;;;;;;18.05;100.00;99598.08;1642274;87;20919;-59
2022/09/29 05:13:07;;;;;;;9.87;8.87;;;;;;;18.31;100.00;99599.92;1638370;87;20936;-67
2022/09/29 05:15:35;;;;;;;9.27;8.17;;;;;;;18.59;100.00;99604.13;1642203;87;22349;-60
2022/09/29 05:18:02;;;;;;;10.77;8.87;;;;;;;18.86;100.00;99607.27;1639080;87;21279;-59
2022/09/29 05:20:30;;;;;;;10.77;8.60;;;;;;;19.07;100.00;99600.28;1642110;87;20903;-60
2022/09/29 05:22:58;;;;;;;9.40;8.47;;;;;;;19.43;100.00;99605.23;1639133;87;20995;-59
2022/09/29 05:25:26;;;;;;;12.97;9.57;;;;;;;19.86;100.00;99608.09;1641659;87;21014;-59
2022/09/29 05:27:53;;;;;;;11.17;10.07;;;;;;;20.23;100.00;99614.25;1639292;87;21023;-59
2022/09/29 05:30:21;;;;;;;11.77;10.50;;;;;;;20.30;100.00;99624.05;1672713;85;22365;-59
2022/09/29 05:32:48;;;;;;;11.23;10.13;;;;;;;20.30;100.00;99621.41;1672344;85;20959;-70
2022/09/29 05:35:15;;;;;;;11.13;10.00;;;;;;;20.47;100.00;99622.51;1672264;85;20956;-59
2022/09/29 05:37:44;;;;;;;11.13;10.03;;;;;;;20.52;100.00;99627.30;1672597;85;21037;-59
2022/09/29 05:40:13;;;;;;;11.53;9.50;;;;;;;20.63;100.00;99629.42;1672737;85;21058;-61
2022/09/29 05:42:40;;;;;;;12.43;8.90;;;;;;;20.83;100.00;99632.59;1672830;85;21130;-60
2022/09/29 05:45:09;;;;;;;10.30;9.17;;;;;;;21.13;100.00;99633.88;1671978;85;21130;-64
2022/09/29 05:47:43;;;;;;;9.63;8.63;;;;;;;21.59;100.00;99635.15;1672771;84;21167;-62
2022/09/29 05:50:12;;;;;;;12.63;8.40;;;;;;;22.06;100.00;99647.13;1672664;84;21016;-61
2022/09/29 05:52:39;;;;;;;10.43;8.67;;;;;;;22.45;100.00;99645.60;1675597;83;21007;-62
2022/09/29 05:55:09;;;;;;;12.83;8.53;;;;;;;22.71;100.00;99648.87;1717846;81;21446;-77
2022/09/29 05:57:36;;;;;;;9.47;8.57;;;;;;;22.90;100.00;99644.99;1718536;82;21436;-63
2022/09/29 06:00:05;;;;;;;9.60;8.70;;;;;;;23.02;100.00;99646.77;1718783;83;21450;-63
2022/09/29 06:02:34;;;;;;;8.10;7.30;;;;;;;23.14;100.00;99645.05;1666098;85;20996;-62
2022/09/29 06:05:03;;;;;;;10.70;9.60;;;;;;;23.45;100.00;99647.67;1711957;83;21074;-78
2022/09/29 06:07:31;;;;;;;10.08;8.98;;;;;;;23.71;100.00;99642.06;1712208;83;21145;-63
2022/09/29 06:09:58;;;;;;;10.10;9.13;;;;;;;23.96;100.00;99643.63;1713119;83;20896;-63
2022/09/29 06:12:25;;;;;;;9.43;8.55;;;;;;;24.18;100.00;99649.18;1713391;83;21047;-62
2022/09/29 06:14:52;;;;;;;11.03;8.50;;;;;;;24.40;100.00;99658.50;1713387;83;20979;-62
2022/09/29 06:17:20;;;;;;;10.82;9.83;;;;;;;24.42;100.00;99659.78;1712952;83;20893;-63
2022/09/29 06:19:48;;;;;;;13.08;9.08;;;;;;;24.51;100.00;99658.60;1713549;83;21273;-62
2022/09/29 06:22:15;;;;;;;13.70;10.03;;;;;;;24.51;100.00;99668.72;1713451;83;21478;-64
2022/09/29 06:24:42;;;;;;;11.60;8.88;;;;;;;24.80;100.00;99669.59;1713223;83;20987;-63
2022/09/29 06:27:10;;;;;;;11.55;9.38;;;;;;;25.32;100.00;99672.45;1711205;82;21556;-68
2022/09/29 06:29:37;;;;;;;9.63;8.73;;;;;;;26.00;100.00;99676.22;1713115;83;21074;-65
2022/09/29 06:32:04;;;;;;;10.00;8.68;;;;;;;26.70;100.00;99682.95;1713285;83;21163;-64
2022/09/29 06:34:33;;;;;;;10.38;9.38;;;;;;;27.35;100.00;99670.38;1713271;83;20968;-66
2022/09/29 06:39:46;;;;;;;9.00;8.10;;;;;;;27.76;100.00;99683.19;1710976;82;21022;-63
2022/09/29 06:42:15;;;;;;;10.13;9.00;;;;;;;27.56;100.00;99690.67;1712839;83;20987;-63
2022/09/29 06:44:43;;;;;;;10.38;9.38;;;;;;;27.39;100.00;99692.74;1713275;83;21965;-82
2022/09/29 06:47:10;;;;;;;9.98;8.98;;;;;;;27.25;100.00;99698.73;1711094;82;20991;-64
2022/09/29 06:49:38;;;;;;;10.25;8.98;;;;;;;27.27;100.00;99700.53;1713178;83;21112;-64
2022/09/29 06:52:05;;;;;;;9.43;8.53;;;;;;;27.01;100.00;99708.94;1717568;82;21016;-65
2022/09/29 06:54:32;;;;;;;11.15;10.00;;;;;;;26.72;100.00;99709.39;1726724;81;20952;-64
2022/09/29 06:57:00;;;;;;;11.08;9.78;;;;;;;26.37;100.00;99711.22;1731994;81;21845;-68
2022/09/29 06:59:28;;;;;;;10.53;9.48;;;;;;;26.15;100.00;99717.84;1743729;82;21018;-63
2022/09/29 07:01:56;;;;;;;10.78;9.78;;;;;;;26.01;100.00;99709.84;1695949;84;21014;-67
2022/09/29 07:04:25;;;;;;;10.03;9.03;;;;;;;25.89;100.00;99714.36;1743693;82;20987;-64
2022/09/29 07:06:52;;;;;;;10.80;9.78;;;;;;;25.70;100.00;99712.31;1687268;83;21475;-63
2022/09/29 07:09:19;;;;;;;9.80;8.80;;;;;;;25.55;100.00;99717.39;1711341;83;22523;-66
2022/09/29 07:11:49;;;;;;;10.63;9.55;;;;;;;25.48;100.00;99721.77;1715962;83;20936;-63
2022/09/29 07:14:18;;;;;;;10.05;9.03;;;;;;;25.50;100.00;99718.83;1733040;82;21584;-62
2022/09/29 07:16:47;;;;;;;10.25;9.25;;;;;;;25.41;100.00;99721.37;1737880;82;20948;-76
2022/09/29 07:19:24;;;;;;;10.95;9.53;;;;;;;25.45;100.00;99729.03;1688538;82;21348;-63
2022/09/29 07:21:54;;;;;;;10.45;9.45;;;;;;;25.49;100.00;99722.56;1687425;85;21839;-62
2022/09/29 07:24:23;;;;;;;11.03;9.90;;;;;;;25.52;100.00;99718.52;1687369;85;21804;-62
2022/09/29 07:26:51;;;;;;;11.63;9.55;;;;;;;25.40;100.00;99723.80;1686998;85;21530;-64
2022/09/29 07:29:19;;;;;;;10.05;9.05;;;;;;;25.24;100.00;99725.95;1687338;85;21090;-63
2022/09/29 07:31:46;;;;;;;10.68;9.63;;;;;;;25.18;100.00;99728.98;1687376;85;21024;-62
2022/09/29 07:34:14;;;;;;;10.08;9.08;;;;;;;25.08;100.00;99727.78;1687639;85;21741;-62
2022/09/29 07:36:41;;;;;;;10.35;9.35;;;;;;;25.07;100.00;99733.66;1686879;85;20904;-73
2022/09/29 07:39:10;;;;;;;10.55;9.55;;;;;;;25.02;100.00;99735.63;1687270;85;21082;-63
2022/09/29 07:41:38;;;;;;;10.00;9.00;;;;;;;24.99;100.00;99734.33;1687314;85;20995;-63
2022/09/29 07:44:06;;;;;;;9.53;8.63;;;;;;;24.90;100.00;99739.55;1687376;85;21007;-63
2022/09/29 07:46:34;;;;;;;10.58;9.48;;;;;;;24.94;100.00;99737.88;1686387;85;21066;-75
2022/09/29 07:49:02;;;;;;;9.88;8.88;;;;;;;25.04;100.00;99740.94;1686353;85;21007;-64
2022/09/29 07:51:30;;;;;;;10.05;8.80;;;;;;;25.18;100.00;99740.98;1686105;85;21368;-64
2022/09/29 07:54:02;;;;;;;10.48;9.48;;;;;;;25.37;100.00;99744.39;1686565;85;21058;-63
2022/09/29 07:56:30;;;;;;;9.93;8.88;;;;;;;25.71;100.00;99741.91;1687420;85;21501;-64
2022/09/29 07:58:57;;;;;;;9.00;8.10;;;;;;;26.15;100.00;99749.35;1686707;85;21170;-64
2022/09/29 08:01:24;;;;;;;8.20;7.40;;;;;;;26.66;100.00;99750.94;1687295;85;21141;-64
2022/09/29 08:03:53;;;;;;;7.70;7.00;;;;;;;28.25;100.00;99754.37;1687197;85;21441;-64
2022/09/29 08:06:22;;;;;;;7.45;6.40;;;;;;;28.25;100.00;99754.37;1683021;85;21593;-64
2022/09/29 08:08:49;;;;;;;9.28;7.47;;;;;;;28.91;87.84;99754.27;1667408;86;20893;-75
2022/09/29 08:11:23;;;;;;;7.92;6.70;;;;;;;29.45;75.87;99751.17;1667784;85;21423;-63
2022/09/29 08:13:51;;;;;;;7.17;6.47;;;;;;;29.68;74.68;99751.75;1672443;84;20911;-65
2022/09/29 08:16:18;;;;;;;6.97;6.28;;;;;;;30.14;69.24;99749.52;1672678;85;21587;-63
2022/09/29 08:18:45;;;;;;;6.40;5.75;;;;;;;30.52;59.84;99751.33;1671610;84;21094;-75
2022/09/29 08:21:14;;;;;;;6.50;5.90;;;;;;;30.74;58.59;99748.89;1672575;84;21535;-64
2022/09/29 08:23:42;;;;;;;6.95;6.33;;;;;;;31.03;57.55;99752.03;1672442;85;22437;-64
2022/09/29 08:26:14;;;;;;;7.92;7.22;;;;;;;31.55;55.00;99756.84;1672666;85;20968;-64
2022/09/29 08:28:42;;;;;;;7.70;6.87;;;;;;;31.85;48.82;99756.63;1672608;85;20978;-64
2022/09/29 08:31:16;;;;;;;6.12;5.53;;;;;;;31.96;47.39;99751.03;1672780;85;20927;-63
2022/09/29 08:33:44;;;;;;;6.80;6.10;;;;;;;32.03;46.31;99753.17;1672447;84;21529;-62
2022/09/29 08:36:15;;;;;;;6.58;5.95;;;;;;;31.93;45.75;99759.80;1672403;84;21167;-75
2022/09/29 08:38:49;;;;;;;7.42;6.70;;;;;;;31.71;45.87;99762.38;1672474;84;22376;-63
2022/09/29 08:41:56;;;;;;;6.95;5.97;;;;;;;31.70;44.35;99756.17;1672834;84;21014;-63
2022/09/29 08:44:50;;;;;;;6.40;5.80;;;;;;;31.49;44.38;99760.89;1672618;85;21050;-64
2022/09/29 08:47:30;;;;;;;6.17;5.55;;;;;;;31.43;45.24;99756.84;1676598;83;21505;-70
2022/09/29 08:50:06;;;;;;;6.60;5.92;;;;;;;31.61;46.15;99756.86;1677874;84;21027;-61
2022/09/29 08:52:37;;;;;;;6.30;5.33;;;;;;;31.91;45.94;99763.41;1639684;86;20960;-60
2022/09/29 08:55:15;;;;;;;;;;;;;;;31.93;46.23;99759.23;1715222;83;21024;-65
2022/09/29 08:57:46;;;;;;;6.28;5.53;;;;;;;31.93;43.64;99760.58;1712536;83;20144;-61
2022/09/29 09:00:15;;;;;;;7.20;6.10;;;;;;;32.03;43.88;99760.70;1713511;83;21571;-61
2022/09/29 09:03:03;;;;;;;5.83;5.22;;;;;;;32.03;42.35;99766.09;1713141;83;21168;-65
2022/09/29 09:06:09;;;;;;;7.00;6.30;;;;;;;32.01;43.41;99764.84;1713377;83;21012;-60
2022/09/29 09:09:02;;;;;;;6.95;6.15;;;;;;;31.76;43.10;99770.80;1713340;83;21601;-61
2022/09/29 09:12:06;;;;;;;6.22;5.50;;;;;;;31.48;41.23;99763.34;1713162;83;21062;-60
2022/09/29 09:15:03;;;;;;;7.17;5.70;;;;;;;31.00;44.11;99763.45;1653667;86;21182;-59
2022/09/29 09:17:52;;;;;;;6.08;5.47;;;;;;;31.00;44.19;99768.83;1713108;83;21283;-60
2022/09/29 09:20:31;;;;;;;5.78;5.15;;;;;;;31.10;42.53;99770.30;1713408;83;21019;-60
2022/09/29 09:23:09;;;;;;;5.60;4.80;;;;;;;30.95;42.15;99776.56;1713244;83;20904;-60
2022/09/29 09:25:40;;;;;;;6.08;5.47;;;;;;;30.96;41.16;99781.38;1713186;83;20996;-59
2022/09/29 09:28:18;;;;;;;6.15;5.55;;;;;;;30.89;42.00;99785.95;1713251;83;21446;-59
2022/09/29 09:30:59;;;;;;;6.05;4.90;;;;;;;30.82;42.75;99781.66;1712587;83;21681;-60
2022/09/29 09:33:40;;;;;;;7.20;6.30;;;;;;;30.87;42.29;99787.39;1713264;83;21450;-61
2022/09/29 09:36:33;;;;;;;6.75;6.05;;;;;;;31.03;42.36;99785.67;1712561;83;21055;-60
2022/09/29 09:39:23;;;;;;;6.65;5.92;;;;;;;31.07;42.49;99788.49;1713233;83;20952;-59
2022/09/29 09:41:51;;;;;;;6.45;5.72;;;;;;;31.18;40.52;99786.95;1713257;83;21020;-59
2022/09/29 09:44:24;;;;;;;6.33;5.25;;;;;;;31.08;41.32;99791.41;1713317;83;21316;-59
2022/09/29 09:47:13;;;;;;;6.53;4.87;;;;;;;31.07;40.64;99791.97;1712737;83;20972;-67
2022/09/29 09:49:43;;;;;;;5.67;4.75;;;;;;;31.07;40.37;99796.57;1682419;85;21043;-59
2022/09/29 09:52:40;;;;;;;5.95;5.33;;;;;;;30.71;40.19;99791.22;1655056;86;21036;-59
2022/09/29 09:55:15;;;;;;;6.65;5.08;;;;;;;30.66;41.59;99793.55;1671581;85;20921;-60
2022/09/29 09:58:06;;;;;;;5.97;5.12;;;;;;;30.91;41.83;99798.53;1706527;83;21816;-59
2022/09/29 10:00:57;;;;;;;5.92;4.75;;;;;;;31.15;39.87;99803.77;1713222;83;20999;-59
2022/09/29 10:03:26;;;;;;;5.72;5.08;;;;;;;31.21;38.23;99804.55;1713443;83;21004;-62
2022/09/29 10:05:53;;;;;;;6.30;5.15;;;;;;;31.17;39.14;99810.94;1710547;83;20964;-59
2022/09/29 10:08:28;;;;;;;6.28;5.10;;;;;;;31.25;39.12;99805.48;1713132;83;21156;-59
2022/09/29 10:10:57;;;;;;;5.80;5.15;;;;;;;31.07;40.37;99809.47;1713179;83;20948;-60
2022/09/29 10:13:27;;;;;;;5.67;5.08;;;;;;;30.98;40.54;99809.52;1712935;83;21022;-62
2022/09/29 10:16:10;;;;;;;5.65;5.00;;;;;;;31.12;38.32;99818.67;1712975;83;21061;-59
2022/09/29 10:18:42;;;;;;;6.87;5.85;;;;;;;31.10;39.00;99818.77;1683708;85;21017;-59
2022/09/29 10:21:37;;;;;;;6.03;5.42;;;;;;;30.99;39.91;99821.89;1671146;85;21538;-68
2022/09/29 10:24:08;;;;;;;6.60;5.90;;;;;;;30.89;41.19;99816.90;1671584;85;21590;-59
2022/09/29 10:26:43;;;;;;;7.37;6.67;;;;;;;30.77;41.42;99813.59;1713045;83;21551;-67
2022/09/29 10:29:33;;;;;;;6.12;5.05;;;;;;;30.82;41.51;99819.33;1713438;83;21655;-60
2022/09/29 10:32:12;;;;;;;6.17;5.20;;;;;;;30.65;41.15;99818.08;1713415;83;21493;-59
2022/09/29 10:34:45;;;;;;;6.05;5.25;;;;;;;30.63;40.96;99819.77;1687306;83;22359;-58
2022/09/29 10:37:25;;;;;;;6.05;5.45;;;;;;;30.63;40.39;99814.38;1713461;83;21431;-60
2022/09/29 10:40:10;;;;;;;5.47;4.60;;;;;;;30.57;41.04;99812.98;1712952;83;21014;-60
2022/09/29 10:42:42;;;;;;;7.15;5.08;;;;;;;30.58;40.90;99815.93;1713574;83;21012;-60
2022/09/29 10:45:21;;;;;;;5.90;5.10;;;;;;;30.64;41.28;99821.33;1713317;83;21130;-60
2022/09/29 10:48:00;;;;;;;6.28;5.58;;;;;;;30.76;40.44;99813.38;1713370;83;21626;-59
2022/09/29 10:50:30;;;;;;;6.12;5.28;;;;;;;30.66;39.82;99812.95;1713392;83;21250;-59
2022/09/29 10:53:00;;;;;;;5.25;4.75;;;;;;;30.52;40.01;99815.32;1713488;83;21557;-59
2022/09/29 10:55:30;;;;;;;5.15;4.45;;;;;;;30.61;39.44;99815.28;1713165;83;20947;-59
2022/09/29 10:57:59;;;;;;;4.53;4.10;;;;;;;30.64;38.58;99813.26;1687324;83;21562;-59
2022/09/29 11:00:38;;;;;;;5.37;4.78;;;;;;;30.54;39.49;99816.36;1713455;83;21008;-59
2022/09/29 11:03:22;;;;;;;5.05;4.55;;;;;;;30.54;39.42;99821.17;1713020;83;21235;-59
2022/09/29 11:05:58;;;;;;;5.40;4.80;;;;;;;30.41;40.17;99822.77;1713256;83;21014;-59
2022/09/29 11:08:26;;;;;;;5.70;5.10;;;;;;;30.35;41.01;99820.83;1714180;83;21658;-67
2022/09/29 11:11:23;;;;;;;5.37;4.87;;;;;;;30.34;41.06;99819.80;1716097;83;22485;-59
2022/09/29 11:13:51;;;;;;;5.72;4.70;;;;;;;30.33;40.94;99823.05;1715737;83;20896;-66
2022/09/29 11:16:31;;;;;;;6.83;5.00;;;;;;;30.10;41.03;99815.79;1716099;83;21159;-60
2022/09/29 11:19:10;;;;;;;4.85;4.10;;;;;;;30.12;41.27;99822.98;1716263;83;20991;-59
2022/09/29 11:22:04;;;;;;;5.45;4.62;;;;;;;30.05;41.43;99818.67;1716336;83;21008;-67
2022/09/29 11:24:39;;;;;;;5.75;5.15;;;;;;;30.11;41.15;99819.27;1716137;83;20881;-59
2022/09/29 11:27:28;;;;;;;5.80;5.20;;;;;;;30.18;41.63;99816.89;1716166;83;20947;-60
2022/09/29 11:30:09;;;;;;;5.37;4.87;;;;;;;30.18;41.63;99816.89;1716001;83;21277;-62
2022/09/29 11:32:54;;;;;;;5.45;4.95;;;;;;;30.22;41.99;99826.66;1716111;83;20892;-60
2022/09/29 11:35:45;;;;;;;5.97;5.17;;;;;;;30.30;41.58;99825.82;1687575;83;21142;-59
2022/09/29 11:38:34;;;;;;;6.28;5.35;;;;;;;30.30;41.58;99825.82;1713141;83;20935;-62
2022/09/29 11:41:33;;;;;;;5.42;4.92;;;;;;;30.15;41.33;99826.34;1716130;83;21079;-60
2022/09/29 11:44:39;;;;;;;6.15;4.97;;;;;;;30.06;42.25;99825.62;1715471;83;21755;-62
2022/09/29 11:47:14;;;;;;;6.90;5.35;;;;;;;29.99;41.96;99822.64;1716495;83;20951;-59
2022/09/29 11:50:02;;;;;;;5.22;4.72;;;;;;;29.99;41.96;99822.64;1715691;83;20944;-59
2022/09/29 11:52:50;;;;;;;4.60;4.08;;;;;;;29.96;41.41;99817.91;1716161;83;20909;-59
2022/09/29 11:55:37;;;;;;;5.30;4.45;;;;;;;29.90;41.29;99817.87;1715861;83;21103;-59
2022/09/29 11:58:25;;;;;;;5.33;4.20;;;;;;;29.79;42.23;99828.97;1716319;83;21240;-60